HCMH

Egal International Airport

Hargeisa, Somalia
METAR HCMH 181300Z 34014KT 9999 FEW030 22/12 Q1019 NOSIG
Observed Flight Rules
Dec-18 @ 13:00 UTC (7 hours ago) Visual Flight Rules
Wind Visibility Clouds
340° at 14 knots 10,000+ meters
  • Few at 3,000' AGL
Temperatures Readings
Current 22°C / 72°F
Dewpoint 12°C / 54°F
Humidity 53%
Altimeter 30.09" Hg
Pressure 1019 hPa
Elevation 1326
METAR HCMH 181300Z 34014KT 9999 FEW030 22/12 Q1019 NOSIG
Observed Flight Rules
Dec-18 @ 13:00 UTC
(7 hours ago)
VFR
Wind Visibility
340° at 14 knots 10,000+ meters
Clouds
  • Few at 3,000' AGL
Temperature Dewpoint
22°C / 72°F 12°C / 54°F
Humidity Altimeter Pressure
53% 30.09" Hg 1019 hPa